sensor_id;sensor_type;location;lat;lon;timestamp;temperature;humidity
12948;DHT22;6539;49.476;8.484;2023-06-26T00:01:31;24.80;99.90
12948;DHT22;6539;49.476;8.484;2023-06-26T00:04:19;24.70;99.90
12948;DHT22;6539;49.476;8.484;2023-06-26T00:07:05;24.70;99.90
12948;DHT22;6539;49.476;8.484;2023-06-26T00:09:51;24.70;99.90
12948;DHT22;6539;49.476;8.484;2023-06-26T00:12:38;24.70;99.90
12948;DHT22;6539;49.476;8.484;2023-06-26T00:15:24;24.70;99.90
12948;DHT22;6539;49.476;8.484;2023-06-26T00:18:10;24.60;99.90
12948;DHT22;6539;49.476;8.484;2023-06-26T00:20:58;24.60;99.90
12948;DHT22;6539;49.476;8.484;2023-06-26T00:23:47;24.50;99.90
12948;DHT22;6539;49.476;8.484;2023-06-26T00:26:33;24.60;99.90
12948;DHT22;6539;49.476;8.484;2023-06-26T00:29:19;24.60;99.90
12948;DHT22;6539;49.476;8.484;2023-06-26T00:32:07;24.60;99.90
12948;DHT22;6539;49.476;8.484;2023-06-26T00:34:55;24.50;99.90
12948;DHT22;6539;49.476;8.484;2023-06-26T00:37:41;24.50;99.90
12948;DHT22;6539;49.476;8.484;2023-06-26T00:40:30;24.50;99.90
12948;DHT22;6539;49.476;8.484;2023-06-26T00:43:16;24.40;99.90
12948;DHT22;6539;49.476;8.484;2023-06-26T00:46:02;24.30;99.90
12948;DHT22;6539;49.476;8.484;2023-06-26T00:48:48;24.30;99.90
12948;DHT22;6539;49.476;8.484;2023-06-26T00:51:35;24.30;99.90
12948;DHT22;6539;49.476;8.484;2023-06-26T00:54:23;24.10;99.90
12948;DHT22;6539;49.476;8.484;2023-06-26T00:57:09;24.00;99.90
12948;DHT22;6539;49.476;8.484;2023-06-26T00:59:56;23.90;99.90
12948;DHT22;6539;49.476;8.484;2023-06-26T01:02:42;23.80;99.90
12948;DHT22;6539;49.476;8.484;2023-06-26T01:05:31;23.80;99.90
12948;DHT22;6539;49.476;8.484;2023-06-26T01:08:19;23.80;99.90
12948;DHT22;6539;49.476;8.484;2023-06-26T01:11:09;23.80;99.90
12948;DHT22;6539;49.476;8.484;2023-06-26T01:13:56;23.80;99.90
12948;DHT22;6539;49.476;8.484;2023-06-26T01:16:46;23.80;99.90
12948;DHT22;6539;49.476;8.484;2023-06-26T01:19:35;23.80;99.90
12948;DHT22;6539;49.476;8.484;2023-06-26T01:22:34;23.80;99.90
12948;DHT22;6539;49.476;8.484;2023-06-26T01:28:39;23.70;99.90
12948;DHT22;6539;49.476;8.484;2023-06-26T01:31:28;23.70;99.90
12948;DHT22;6539;49.476;8.484;2023-06-26T01:34:17;23.70;99.90
12948;DHT22;6539;49.476;8.484;2023-06-26T01:37:03;23.70;99.90
12948;DHT22;6539;49.476;8.484;2023-06-26T01:39:49;23.70;99.90
12948;DHT22;6539;49.476;8.484;2023-06-26T01:42:36;23.60;99.90
12948;DHT22;6539;49.476;8.484;2023-06-26T01:45:27;23.60;99.90
12948;DHT22;6539;49.476;8.484;2023-06-26T01:48:23;23.50;99.90
12948;DHT22;6539;49.476;8.484;2023-06-26T01:51:14;23.50;99.90
12948;DHT22;6539;49.476;8.484;2023-06-26T01:54:07;23.50;99.90
12948;DHT22;6539;49.476;8.484;2023-06-26T01:57:02;23.50;99.90
12948;DHT22;6539;49.476;8.484;2023-06-26T01:59:53;23.50;99.90
12948;DHT22;6539;49.476;8.484;2023-06-26T02:02:44;23.50;99.90
12948;DHT22;6539;49.476;8.484;2023-06-26T02:05:33;23.50;99.90
12948;DHT22;6539;49.476;8.484;2023-06-26T02:08:19;23.40;99.90
12948;DHT22;6539;49.476;8.484;2023-06-26T02:11:05;23.40;99.90
12948;DHT22;6539;49.476;8.484;2023-06-26T02:13:51;23.30;99.90
12948;DHT22;6539;49.476;8.484;2023-06-26T02:16:37;23.20;99.90
12948;DHT22;6539;49.476;8.484;2023-06-26T02:19:23;23.10;99.90
12948;DHT22;6539;49.476;8.484;2023-06-26T02:22:16;23.00;99.90
12948;DHT22;6539;49.476;8.484;2023-06-26T02:25:02;22.90;99.90
12948;DHT22;6539;49.476;8.484;2023-06-26T02:27:49;22.80;99.90
12948;DHT22;6539;49.476;8.484;2023-06-26T02:30:35;22.70;99.90
12948;DHT22;6539;49.476;8.484;2023-06-26T02:33:21;22.60;99.90
12948;DHT22;6539;49.476;8.484;2023-06-26T02:36:07;22.60;99.90
12948;DHT22;6539;49.476;8.484;2023-06-26T02:38:53;22.50;99.90
12948;DHT22;6539;49.476;8.484;2023-06-26T02:41:39;22.50;99.90
12948;DHT22;6539;49.476;8.484;2023-06-26T02:44:25;22.50;99.90
12948;DHT22;6539;49.476;8.484;2023-06-26T02:47:11;22.40;99.90
12948;DHT22;6539;49.476;8.484;2023-06-26T02:49:59;22.30;99.90
12948;DHT22;6539;49.476;8.484;2023-06-26T02:52:46;22.20;99.90
12948;DHT22;6539;49.476;8.484;2023-06-26T02:55:36;22.10;99.90
12948;DHT22;6539;49.476;8.484;2023-06-26T02:58:22;22.00;99.90
12948;DHT22;6539;49.476;8.484;2023-06-26T03:01:10;22.00;99.90
12948;DHT22;6539;49.476;8.484;2023-06-26T03:03:58;22.00;99.90
12948;DHT22;6539;49.476;8.484;2023-06-26T03:06:50;21.90;99.90
12948;DHT22;6539;49.476;8.484;2023-06-26T03:09:36;21.90;99.90
12948;DHT22;6539;49.476;8.484;2023-06-26T03:12:22;21.80;99.90
12948;DHT22;6539;49.476;8.484;2023-06-26T03:15:11;21.80;99.90
12948;DHT22;6539;49.476;8.484;2023-06-26T03:17:59;21.70;99.90
12948;DHT22;6539;49.476;8.484;2023-06-26T03:20:50;21.70;99.90
12948;DHT22;6539;49.476;8.484;2023-06-26T03:23:39;21.60;99.90
12948;DHT22;6539;49.476;8.484;2023-06-26T03:26:25;21.60;99.90
12948;DHT22;6539;49.476;8.484;2023-06-26T03:29:13;21.60;99.90
12948;DHT22;6539;49.476;8.484;2023-06-26T03:31:59;21.70;99.90
12948;DHT22;6539;49.476;8.484;2023-06-26T03:34:45;21.70;99.90
12948;DHT22;6539;49.476;8.484;2023-06-26T03:37:31;21.60;99.90
12948;DHT22;6539;49.476;8.484;2023-06-26T03:40:17;21.60;99.90
12948;DHT22;6539;49.476;8.484;2023-06-26T03:43:06;21.50;99.90
12948;DHT22;6539;49.476;8.484;2023-06-26T03:45:52;21.50;99.90
12948;DHT22;6539;49.476;8.484;2023-06-26T03:48:38;21.50;99.90
12948;DHT22;6539;49.476;8.484;2023-06-26T03:51:26;21.50;99.90
12948;DHT22;6539;49.476;8.484;2023-06-26T03:54:12;21.60;99.90
12948;DHT22;6539;49.476;8.484;2023-06-26T03:57:01;21.70;99.90
12948;DHT22;6539;49.476;8.484;2023-06-26T03:59:47;21.80;99.90
12948;DHT22;6539;49.476;8.484;2023-06-26T04:02:34;21.90;99.90
12948;DHT22;6539;49.476;8.484;2023-06-26T04:05:23;22.00;99.90
12948;DHT22;6539;49.476;8.484;2023-06-26T04:08:11;22.20;99.90
12948;DHT22;6539;49.476;8.484;2023-06-26T04:10:57;22.40;99.90
12948;DHT22;6539;49.476;8.484;2023-06-26T04:13:44;22.50;99.90
12948;DHT22;6539;49.476;8.484;2023-06-26T04:16:30;22.50;99.90
12948;DHT22;6539;49.476;8.484;2023-06-26T04:19:16;22.50;99.90
12948;DHT22;6539;49.476;8.484;2023-06-26T04:22:02;22.30;99.90
12948;DHT22;6539;49.476;8.484;2023-06-26T04:24:51;22.30;99.90
12948;DHT22;6539;49.476;8.484;2023-06-26T04:27:38;22.20;99.90
12948;DHT22;6539;49.476;8.484;2023-06-26T04:30:24;22.10;99.90
12948;DHT22;6539;49.476;8.484;2023-06-26T04:33:10;22.20;99.90
12948;DHT22;6539;49.476;8.484;2023-06-26T04:35:57;22.10;99.90
12948;DHT22;6539;49.476;8.484;2023-06-26T04:38:43;22.00;99.90
12948;DHT22;6539;49.476;8.484;2023-06-26T04:41:35;21.90;99.90
12948;DHT22;6539;49.476;8.484;2023-06-26T04:44:21;21.80;99.90
12948;DHT22;6539;49.476;8.484;2023-06-26T04:47:08;21.70;99.90
12948;DHT22;6539;49.476;8.484;2023-06-26T04:49:56;21.60;99.90
12948;DHT22;6539;49.476;8.484;2023-06-26T04:52:45;21.60;99.90
12948;DHT22;6539;49.476;8.484;2023-06-26T04:55:31;21.70;99.90
12948;DHT22;6539;49.476;8.484;2023-06-26T04:58:17;21.70;99.90
12948;DHT22;6539;49.476;8.484;2023-06-26T05:01:06;21.90;99.90
12948;DHT22;6539;49.476;8.484;2023-06-26T05:03:52;21.90;99.90
12948;DHT22;6539;49.476;8.484;2023-06-26T05:06:38;22.10;99.90
12948;DHT22;6539;49.476;8.484;2023-06-26T05:09:24;22.10;99.90
12948;DHT22;6539;49.476;8.484;2023-06-26T05:12:10;22.30;99.90
12948;DHT22;6539;49.476;8.484;2023-06-26T05:14:57;22.40;99.90
12948;DHT22;6539;49.476;8.484;2023-06-26T05:17:43;22.40;99.90
12948;DHT22;6539;49.476;8.484;2023-06-26T05:20:30;22.60;99.90
12948;DHT22;6539;49.476;8.484;2023-06-26T05:23:18;22.80;99.90
12948;DHT22;6539;49.476;8.484;2023-06-26T05:26:09;22.90;99.90
12948;DHT22;6539;49.476;8.484;2023-06-26T05:28:56;23.00;99.90
12948;DHT22;6539;49.476;8.484;2023-06-26T05:31:44;23.10;99.90
12948;DHT22;6539;49.476;8.484;2023-06-26T05:34:33;23.10;99.90
12948;DHT22;6539;49.476;8.484;2023-06-26T05:37:23;23.10;99.90
12948;DHT22;6539;49.476;8.484;2023-06-26T05:40:12;23.00;99.90
12948;DHT22;6539;49.476;8.484;2023-06-26T05:43:01;22.90;99.90
12948;DHT22;6539;49.476;8.484;2023-06-26T05:45:48;22.80;99.90
12948;DHT22;6539;49.476;8.484;2023-06-26T05:48:36;22.90;99.90
12948;DHT22;6539;49.476;8.484;2023-06-26T05:51:25;22.90;99.90
12948;DHT22;6539;49.476;8.484;2023-06-26T05:54:11;22.90;99.90
12948;DHT22;6539;49.476;8.484;2023-06-26T05:56:59;22.90;99.90
12948;DHT22;6539;49.476;8.484;2023-06-26T05:59:46;23.10;99.90
12948;DHT22;6539;49.476;8.484;2023-06-26T06:02:32;23.20;99.90
12948;DHT22;6539;49.476;8.484;2023-06-26T06:05:22;23.40;99.90
12948;DHT22;6539;49.476;8.484;2023-06-26T06:08:10;23.40;99.90
12948;DHT22;6539;49.476;8.484;2023-06-26T06:10:56;23.40;99.90
12948;DHT22;6539;49.476;8.484;2023-06-26T06:13:43;23.40;99.90
12948;DHT22;6539;49.476;8.484;2023-06-26T06:16:31;23.40;99.90
12948;DHT22;6539;49.476;8.484;2023-06-26T06:19:20;23.40;99.90
12948;DHT22;6539;49.476;8.484;2023-06-26T06:22:07;23.40;99.90
12948;DHT22;6539;49.476;8.484;2023-06-26T06:24:53;23.60;99.90
12948;DHT22;6539;49.476;8.484;2023-06-26T06:27:41;23.60;99.90
12948;DHT22;6539;49.476;8.484;2023-06-26T06:30:28;23.70;99.90
12948;DHT22;6539;49.476;8.484;2023-06-26T06:33:14;23.80;99.90
12948;DHT22;6539;49.476;8.484;2023-06-26T06:36:00;23.90;99.90
12948;DHT22;6539;49.476;8.484;2023-06-26T06:38:46;23.90;99.90
12948;DHT22;6539;49.476;8.484;2023-06-26T06:41:36;24.00;99.90
12948;DHT22;6539;49.476;8.484;2023-06-26T06:44:26;24.00;99.90
12948;DHT22;6539;49.476;8.484;2023-06-26T06:47:12;24.00;99.90
12948;DHT22;6539;49.476;8.484;2023-06-26T06:49:58;24.10;99.90
12948;DHT22;6539;49.476;8.484;2023-06-26T06:52:47;24.10;99.90
12948;DHT22;6539;49.476;8.484;2023-06-26T06:55:33;24.20;99.90
12948;DHT22;6539;49.476;8.484;2023-06-26T06:58:20;24.30;99.90
12948;DHT22;6539;49.476;8.484;2023-06-26T07:01:06;24.30;99.90
12948;DHT22;6539;49.476;8.484;2023-06-26T07:03:54;24.30;99.90
12948;DHT22;6539;49.476;8.484;2023-06-26T07:06:40;24.40;99.90
12948;DHT22;6539;49.476;8.484;2023-06-26T07:09:29;24.50;99.90
12948;DHT22;6539;49.476;8.484;2023-06-26T07:12:17;24.60;99.90
12948;DHT22;6539;49.476;8.484;2023-06-26T07:15:06;24.60;99.90
12948;DHT22;6539;49.476;8.484;2023-06-26T07:17:52;24.60;99.90
12948;DHT22;6539;49.476;8.484;2023-06-26T07:20:40;24.60;99.90
12948;DHT22;6539;49.476;8.484;2023-06-26T07:23:29;24.70;99.90
12948;DHT22;6539;49.476;8.484;2023-06-26T07:26:17;24.80;99.90
12948;DHT22;6539;49.476;8.484;2023-06-26T07:29:03;24.90;99.90
12948;DHT22;6539;49.476;8.484;2023-06-26T07:31:55;25.00;99.90
12948;DHT22;6539;49.476;8.484;2023-06-26T07:34:43;25.10;99.90
12948;DHT22;6539;49.476;8.484;2023-06-26T07:37:29;25.10;99.90
12948;DHT22;6539;49.476;8.484;2023-06-26T07:40:17;25.20;99.90
12948;DHT22;6539;49.476;8.484;2023-06-26T07:43:03;25.40;99.90
12948;DHT22;6539;49.476;8.484;2023-06-26T07:45:52;25.40;99.90
12948;DHT22;6539;49.476;8.484;2023-06-26T07:48:39;25.60;99.90
12948;DHT22;6539;49.476;8.484;2023-06-26T07:51:25;25.70;99.90
12948;DHT22;6539;49.476;8.484;2023-06-26T07:54:14;25.80;99.90
12948;DHT22;6539;49.476;8.484;2023-06-26T07:57:01;25.90;99.90
12948;DHT22;6539;49.476;8.484;2023-06-26T07:59:50;26.00;99.90
12948;DHT22;6539;49.476;8.484;2023-06-26T08:02:36;26.10;99.90
12948;DHT22;6539;49.476;8.484;2023-06-26T08:05:22;26.30;99.90
12948;DHT22;6539;49.476;8.484;2023-06-26T08:08:08;26.30;99.90
12948;DHT22;6539;49.476;8.484;2023-06-26T08:10:55;26.40;99.90
12948;DHT22;6539;49.476;8.484;2023-06-26T08:13:43;26.70;99.90
12948;DHT22;6539;49.476;8.484;2023-06-26T08:16:29;26.70;99.90
12948;DHT22;6539;49.476;8.484;2023-06-26T08:19:18;26.70;99.90
12948;DHT22;6539;49.476;8.484;2023-06-26T08:22:05;26.90;99.90
12948;DHT22;6539;49.476;8.484;2023-06-26T08:24:53;27.10;99.90
12948;DHT22;6539;49.476;8.484;2023-06-26T08:27:39;27.30;99.90
12948;DHT22;6539;49.476;8.484;2023-06-26T08:30:25;27.40;99.90
12948;DHT22;6539;49.476;8.484;2023-06-26T08:33:13;27.60;99.90
12948;DHT22;6539;49.476;8.484;2023-06-26T08:35:59;27.90;99.90
12948;DHT22;6539;49.476;8.484;2023-06-26T08:38:45;28.00;99.90
12948;DHT22;6539;49.476;8.484;2023-06-26T08:41:34;28.00;99.90
12948;DHT22;6539;49.476;8.484;2023-06-26T08:44:20;28.10;99.90
12948;DHT22;6539;49.476;8.484;2023-06-26T08:47:11;28.10;99.90
12948;DHT22;6539;49.476;8.484;2023-06-26T08:55:57;28.10;99.90
12948;DHT22;6539;49.476;8.484;2023-06-26T08:58:44;28.30;99.90
12948;DHT22;6539;49.476;8.484;2023-06-26T09:01:31;28.50;99.90
12948;DHT22;6539;49.476;8.484;2023-06-26T09:04:17;28.30;99.90
12948;DHT22;6539;49.476;8.484;2023-06-26T09:07:04;28.20;99.90
12948;DHT22;6539;49.476;8.484;2023-06-26T09:09:52;28.30;99.90
12948;DHT22;6539;49.476;8.484;2023-06-26T09:12:41;28.60;99.90
12948;DHT22;6539;49.476;8.484;2023-06-26T09:16:03;28.70;99.90
12948;DHT22;6539;49.476;8.484;2023-06-26T09:18:55;28.90;99.90
12948;DHT22;6539;49.476;8.484;2023-06-26T09:21:43;29.00;99.90
12948;DHT22;6539;49.476;8.484;2023-06-26T09:24:31;29.00;99.90
12948;DHT22;6539;49.476;8.484;2023-06-26T09:27:20;29.20;99.90
12948;DHT22;6539;49.476;8.484;2023-06-26T09:30:07;29.30;99.90
12948;DHT22;6539;49.476;8.484;2023-06-26T09:32:56;29.40;99.90
12948;DHT22;6539;49.476;8.484;2023-06-26T09:35:45;29.60;99.90
12948;DHT22;6539;49.476;8.484;2023-06-26T09:38:35;29.70;99.90
12948;DHT22;6539;49.476;8.484;2023-06-26T09:41:22;29.80;99.90
12948;DHT22;6539;49.476;8.484;2023-06-26T09:44:11;29.80;99.90
12948;DHT22;6539;49.476;8.484;2023-06-26T09:47:02;29.90;99.90
12948;DHT22;6539;49.476;8.484;2023-06-26T09:49:52;30.10;99.90
12948;DHT22;6539;49.476;8.484;2023-06-26T09:52:40;29.90;99.90
12948;DHT22;6539;49.476;8.484;2023-06-26T09:55:27;29.90;99.90
12948;DHT22;6539;49.476;8.484;2023-06-26T09:58:13;30.00;99.90
12948;DHT22;6539;49.476;8.484;2023-06-26T10:01:03;30.10;99.80
12948;DHT22;6539;49.476;8.484;2023-06-26T10:03:49;30.30;99.40
12948;DHT22;6539;49.476;8.484;2023-06-26T10:06:46;30.40;99.30
12948;DHT22;6539;49.476;8.484;2023-06-26T10:09:41;30.60;98.90
12948;DHT22;6539;49.476;8.484;2023-06-26T10:12:30;30.50;98.60
12948;DHT22;6539;49.476;8.484;2023-06-26T10:15:20;29.90;99.10
12948;DHT22;6539;49.476;8.484;2023-06-26T10:18:11;29.50;99.90
12948;DHT22;6539;49.476;8.484;2023-06-26T10:21:06;29.80;99.90
12948;DHT22;6539;49.476;8.484;2023-06-26T10:23:56;30.00;99.30
12948;DHT22;6539;49.476;8.484;2023-06-26T10:26:44;30.10;99.10
12948;DHT22;6539;49.476;8.484;2023-06-26T10:29:32;30.40;98.60
12948;DHT22;6539;49.476;8.484;2023-06-26T10:32:24;30.70;98.50
12948;DHT22;6539;49.476;8.484;2023-06-26T10:35:12;30.30;98.60
12948;DHT22;6539;49.476;8.484;2023-06-26T10:38:02;30.80;98.40
12948;DHT22;6539;49.476;8.484;2023-06-26T10:40:49;31.30;97.60
12948;DHT22;6539;49.476;8.484;2023-06-26T10:43:40;31.40;97.20
12948;DHT22;6539;49.476;8.484;2023-06-26T10:46:26;31.70;96.40
12948;DHT22;6539;49.476;8.484;2023-06-26T10:49:12;31.60;96.30
12948;DHT22;6539;49.476;8.484;2023-06-26T10:52:01;31.40;96.50
12948;DHT22;6539;49.476;8.484;2023-06-26T10:54:47;31.20;96.70
12948;DHT22;6539;49.476;8.484;2023-06-26T10:57:38;30.90;96.80
12948;DHT22;6539;49.476;8.484;2023-06-26T11:00:26;30.80;97.00
12948;DHT22;6539;49.476;8.484;2023-06-26T11:03:25;30.60;97.30
12948;DHT22;6539;49.476;8.484;2023-06-26T11:06:20;30.80;97.30
12948;DHT22;6539;49.476;8.484;2023-06-26T11:09:09;31.10;97.30
12948;DHT22;6539;49.476;8.484;2023-06-26T11:11:58;31.60;96.80
12948;DHT22;6539;49.476;8.484;2023-06-26T11:14:53;32.20;95.80
12948;DHT22;6539;49.476;8.484;2023-06-26T11:17:42;32.60;95.20
12948;DHT22;6539;49.476;8.484;2023-06-26T11:20:32;32.80;94.70
12948;DHT22;6539;49.476;8.484;2023-06-26T11:23:22;33.30;93.90
12948;DHT22;6539;49.476;8.484;2023-06-26T11:26:17;33.70;92.70
12948;DHT22;6539;49.476;8.484;2023-06-26T11:29:07;33.70;91.70
12948;DHT22;6539;49.476;8.484;2023-06-26T11:31:59;33.70;91.70
12948;DHT22;6539;49.476;8.484;2023-06-26T11:34:47;33.80;90.70
12948;DHT22;6539;49.476;8.484;2023-06-26T11:37:34;34.00;90.20
12948;DHT22;6539;49.476;8.484;2023-06-26T11:40:20;33.80;90.10
12948;DHT22;6539;49.476;8.484;2023-06-26T11:43:07;33.60;90.10
12948;DHT22;6539;49.476;8.484;2023-06-26T11:45:53;33.20;90.10
12948;DHT22;6539;49.476;8.484;2023-06-26T11:48:39;33.20;88.20
12948;DHT22;6539;49.476;8.484;2023-06-26T11:51:31;33.20;87.70
12948;DHT22;6539;49.476;8.484;2023-06-26T11:54:24;33.70;83.30
12948;DHT22;6539;49.476;8.484;2023-06-26T11:57:14;34.30;81.70
12948;DHT22;6539;49.476;8.484;2023-06-26T12:00:15;33.90;81.30
12948;DHT22;6539;49.476;8.484;2023-06-26T12:03:02;33.70;81.90
12948;DHT22;6539;49.476;8.484;2023-06-26T12:05:49;34.10;81.20
12948;DHT22;6539;49.476;8.484;2023-06-26T12:08:38;34.60;80.00
12948;DHT22;6539;49.476;8.484;2023-06-26T12:11:27;34.60;75.90
12948;DHT22;6539;49.476;8.484;2023-06-26T12:14:17;33.90;75.50
12948;DHT22;6539;49.476;8.484;2023-06-26T12:17:12;33.80;75.10
12948;DHT22;6539;49.476;8.484;2023-06-26T12:19:59;34.40;72.40
12948;DHT22;6539;49.476;8.484;2023-06-26T12:22:51;34.90;69.60
12948;DHT22;6539;49.476;8.484;2023-06-26T12:25:40;35.00;68.30
12948;DHT22;6539;49.476;8.484;2023-06-26T12:28:26;35.20;66.50
12948;DHT22;6539;49.476;8.484;2023-06-26T12:31:15;34.90;65.30
12948;DHT22;6539;49.476;8.484;2023-06-26T12:34:08;34.70;66.10
12948;DHT22;6539;49.476;8.484;2023-06-26T12:37:04;34.90;65.00
12948;DHT22;6539;49.476;8.484;2023-06-26T12:39:57;35.00;64.80
12948;DHT22;6539;49.476;8.484;2023-06-26T12:42:46;35.50;62.90
12948;DHT22;6539;49.476;8.484;2023-06-26T12:45:38;35.40;61.80
12948;DHT22;6539;49.476;8.484;2023-06-26T12:48:45;35.30;61.10
12948;DHT22;6539;49.476;8.484;2023-06-26T12:51:34;35.60;60.40
12948;DHT22;6539;49.476;8.484;2023-06-26T12:54:25;35.90;58.00
12948;DHT22;6539;49.476;8.484;2023-06-26T12:57:11;35.80;57.90
12948;DHT22;6539;49.476;8.484;2023-06-26T13:00:04;35.80;56.90
12948;DHT22;6539;49.476;8.484;2023-06-26T13:02:56;35.70;56.10
12948;DHT22;6539;49.476;8.484;2023-06-26T13:05:42;35.40;56.70
12948;DHT22;6539;49.476;8.484;2023-06-26T13:08:28;35.90;56.70
12948;DHT22;6539;49.476;8.484;2023-06-26T13:11:14;35.90;56.50
12948;DHT22;6539;49.476;8.484;2023-06-26T13:59:24;34.50;56.00
12948;DHT22;6539;49.476;8.484;2023-06-26T14:02:11;33.10;56.90
12948;DHT22;6539;49.476;8.484;2023-06-26T14:04:57;32.90;57.50
12948;DHT22;6539;49.476;8.484;2023-06-26T14:07:43;32.50;55.70
12948;DHT22;6539;49.476;8.484;2023-06-26T14:10:34;31.50;56.20
12948;DHT22;6539;49.476;8.484;2023-06-26T14:13:22;31.00;55.40
12948;DHT22;6539;49.476;8.484;2023-06-26T14:16:11;31.30;55.90
12948;DHT22;6539;49.476;8.484;2023-06-26T14:18:57;31.60;56.10
12948;DHT22;6539;49.476;8.484;2023-06-26T14:21:48;31.70;54.10
12948;DHT22;6539;49.476;8.484;2023-06-26T14:24:37;31.30;54.20
12948;DHT22;6539;49.476;8.484;2023-06-26T14:27:23;31.30;53.60
12948;DHT22;6539;49.476;8.484;2023-06-26T14:30:11;31.60;53.10
12948;DHT22;6539;49.476;8.484;2023-06-26T14:32:57;31.20;51.30
12948;DHT22;6539;49.476;8.484;2023-06-26T14:35:43;31.20;51.30
12948;DHT22;6539;49.476;8.484;2023-06-26T14:38:32;31.00;52.40
12948;DHT22;6539;49.476;8.484;2023-06-26T14:41:18;31.20;50.90
12948;DHT22;6539;49.476;8.484;2023-06-26T14:44:04;31.20;50.40
12948;DHT22;6539;49.476;8.484;2023-06-26T14:46:53;30.60;51.30
12948;DHT22;6539;49.476;8.484;2023-06-26T14:49:39;30.60;51.50
12948;DHT22;6539;49.476;8.484;2023-06-26T14:52:25;30.70;52.10
12948;DHT22;6539;49.476;8.484;2023-06-26T14:55:11;30.90;50.90
12948;DHT22;6539;49.476;8.484;2023-06-26T14:57:58;31.60;50.80
12948;DHT22;6539;49.476;8.484;2023-06-26T15:00:44;31.90;50.10
12948;DHT22;6539;49.476;8.484;2023-06-26T15:03:30;32.60;49.30
12948;DHT22;6539;49.476;8.484;2023-06-26T15:06:16;32.60;48.40
12948;DHT22;6539;49.476;8.484;2023-06-26T15:09:02;33.20;48.00
12948;DHT22;6539;49.476;8.484;2023-06-26T15:11:48;33.80;47.20
12948;DHT22;6539;49.476;8.484;2023-06-26T15:14:34;33.80;47.00
12948;DHT22;6539;49.476;8.484;2023-06-26T15:17:20;33.00;47.40
12948;DHT22;6539;49.476;8.484;2023-06-26T15:20:09;32.10;48.80
12948;DHT22;6539;49.476;8.484;2023-06-26T15:23:00;31.80;49.30
12948;DHT22;6539;49.476;8.484;2023-06-26T15:25:48;31.50;49.60
12948;DHT22;6539;49.476;8.484;2023-06-26T15:28:34;31.50;49.70
12948;DHT22;6539;49.476;8.484;2023-06-26T15:31:20;31.90;49.80
12948;DHT22;6539;49.476;8.484;2023-06-26T15:34:06;32.50;49.40
12948;DHT22;6539;49.476;8.484;2023-06-26T15:36:55;32.10;49.10
12948;DHT22;6539;49.476;8.484;2023-06-26T15:39:44;31.80;49.80
12948;DHT22;6539;49.476;8.484;2023-06-26T15:42:30;32.90;49.20
12948;DHT22;6539;49.476;8.484;2023-06-26T15:45:16;34.00;48.50
12948;DHT22;6539;49.476;8.484;2023-06-26T15:48:08;34.50;48.40
12948;DHT22;6539;49.476;8.484;2023-06-26T15:50:54;34.50;48.30
12948;DHT22;6539;49.476;8.484;2023-06-26T15:53:40;34.70;48.60
12948;DHT22;6539;49.476;8.484;2023-06-26T15:56:26;35.30;48.20
12948;DHT22;6539;49.476;8.484;2023-06-26T15:59:12;34.90;48.00
12948;DHT22;6539;49.476;8.484;2023-06-26T16:02:01;34.60;48.30
12948;DHT22;6539;49.476;8.484;2023-06-26T16:04:47;34.60;48.20
12948;DHT22;6539;49.476;8.484;2023-06-26T16:07:33;34.30;48.10
12948;DHT22;6539;49.476;8.484;2023-06-26T16:10:19;34.30;48.50
12948;DHT22;6539;49.476;8.484;2023-06-26T16:13:05;34.90;47.80
12948;DHT22;6539;49.476;8.484;2023-06-26T16:15:51;34.00;48.10
12948;DHT22;6539;49.476;8.484;2023-06-26T16:18:40;34.70;47.70
12948;DHT22;6539;49.476;8.484;2023-06-26T16:21:28;34.30;47.70
12948;DHT22;6539;49.476;8.484;2023-06-26T16:24:17;34.70;47.50
12948;DHT22;6539;49.476;8.484;2023-06-26T16:27:03;34.90;47.10
12948;DHT22;6539;49.476;8.484;2023-06-26T16:29:51;35.30;47.10
12948;DHT22;6539;49.476;8.484;2023-06-26T16:32:37;35.10;47.00
12948;DHT22;6539;49.476;8.484;2023-06-26T16:35:27;35.30;46.80
12948;DHT22;6539;49.476;8.484;2023-06-26T16:38:15;35.00;47.00
12948;DHT22;6539;49.476;8.484;2023-06-26T16:41:01;35.70;46.60
12948;DHT22;6539;49.476;8.484;2023-06-26T16:43:47;36.10;45.70
12948;DHT22;6539;49.476;8.484;2023-06-26T16:46:35;35.60;44.50
12948;DHT22;6539;49.476;8.484;2023-06-26T16:49:23;34.80;43.80
12948;DHT22;6539;49.476;8.484;2023-06-26T16:52:10;33.60;46.10
12948;DHT22;6539;49.476;8.484;2023-06-26T16:54:56;33.90;45.60
12948;DHT22;6539;49.476;8.484;2023-06-26T16:57:42;34.10;45.20
12948;DHT22;6539;49.476;8.484;2023-06-26T17:00:28;34.30;44.30
12948;DHT22;6539;49.476;8.484;2023-06-26T17:03:18;34.00;44.30
12948;DHT22;6539;49.476;8.484;2023-06-26T17:06:09;33.40;44.30
12948;DHT22;6539;49.476;8.484;2023-06-26T17:08:57;32.10;45.10
12948;DHT22;6539;49.476;8.484;2023-06-26T17:11:43;31.40;45.80
12948;DHT22;6539;49.476;8.484;2023-06-26T17:14:30;30.60;46.10
12948;DHT22;6539;49.476;8.484;2023-06-26T17:17:18;30.20;46.40
12948;DHT22;6539;49.476;8.484;2023-06-26T17:20:07;29.90;46.80
12948;DHT22;6539;49.476;8.484;2023-06-26T17:22:54;29.60;46.90
12948;DHT22;6539;49.476;8.484;2023-06-26T17:25:43;29.40;47.10
12948;DHT22;6539;49.476;8.484;2023-06-26T17:28:29;29.20;47.50
12948;DHT22;6539;49.476;8.484;2023-06-26T17:31:18;29.00;48.00
12948;DHT22;6539;49.476;8.484;2023-06-26T17:34:06;28.80;48.40
12948;DHT22;6539;49.476;8.484;2023-06-26T17:36:54;28.60;49.00
12948;DHT22;6539;49.476;8.484;2023-06-26T17:39:40;28.40;49.50
12948;DHT22;6539;49.476;8.484;2023-06-26T17:42:26;28.30;49.70
12948;DHT22;6539;49.476;8.484;2023-06-26T17:45:12;28.30;50.10
12948;DHT22;6539;49.476;8.484;2023-06-26T17:47:58;28.20;50.50
12948;DHT22;6539;49.476;8.484;2023-06-26T17:50:44;28.20;50.80
12948;DHT22;6539;49.476;8.484;2023-06-26T17:53:33;28.20;50.90
12948;DHT22;6539;49.476;8.484;2023-06-26T17:56:19;28.10;51.00
12948;DHT22;6539;49.476;8.484;2023-06-26T17:59:08;28.00;51.30
12948;DHT22;6539;49.476;8.484;2023-06-26T18:01:58;28.00;51.40
12948;DHT22;6539;49.476;8.484;2023-06-26T18:04:45;27.90;51.10
12948;DHT22;6539;49.476;8.484;2023-06-26T18:07:32;27.70;51.40
12948;DHT22;6539;49.476;8.484;2023-06-26T18:10:18;27.50;51.60
12948;DHT22;6539;49.476;8.484;2023-06-26T18:13:04;27.40;52.10
12948;DHT22;6539;49.476;8.484;2023-06-26T18:15:50;27.40;52.10
12948;DHT22;6539;49.476;8.484;2023-06-26T18:18:40;27.30;52.40
12948;DHT22;6539;49.476;8.484;2023-06-26T18:21:26;27.30;52.40
12948;DHT22;6539;49.476;8.484;2023-06-26T18:24:15;27.30;52.60
12948;DHT22;6539;49.476;8.484;2023-06-26T18:27:01;27.30;53.40
12948;DHT22;6539;49.476;8.484;2023-06-26T18:29:47;27.30;53.30
12948;DHT22;6539;49.476;8.484;2023-06-26T18:32:33;27.20;56.60
12948;DHT22;6539;49.476;8.484;2023-06-26T18:35:22;27.00;58.00
12948;DHT22;6539;49.476;8.484;2023-06-26T18:38:08;26.80;59.20
12948;DHT22;6539;49.476;8.484;2023-06-26T18:40:57;26.80;60.10
12948;DHT22;6539;49.476;8.484;2023-06-26T18:43:43;26.60;60.90
12948;DHT22;6539;49.476;8.484;2023-06-26T18:46:32;26.50;61.50
12948;DHT22;6539;49.476;8.484;2023-06-26T18:49:19;26.30;62.00
12948;DHT22;6539;49.476;8.484;2023-06-26T18:52:07;26.30;62.60